sensor_id;sensor_type;location;lat;lon;timestamp;pressure;altitude;pressure_sealevel;temperature;humidity
60465;BME280;46314;52.392;9.758;2023-03-03T00:00:23;101709.44;;;0.43;100.00
60465;BME280;46314;52.392;9.758;2023-03-03T00:02:49;101697.69;;;0.89;100.00
60465;BME280;46314;52.392;9.758;2023-03-03T00:05:16;101711.31;;;1.09;100.00
60465;BME280;46314;52.392;9.758;2023-03-03T00:07:43;101693.25;;;0.35;100.00
60465;BME280;46314;52.392;9.758;2023-03-03T00:10:10;101692.63;;;0.60;100.00
60465;BME280;46314;52.392;9.758;2023-03-03T00:12:44;101692.03;;;1.69;99.60
60465;BME280;46314;52.392;9.758;2023-03-03T00:15:18;101704.09;;;1.42;97.10
60465;BME280;46314;52.392;9.758;2023-03-03T00:17:45;101702.59;;;1.46;100.00
60465;BME280;46314;52.392;9.758;2023-03-03T00:20:26;101708.38;;;0.84;99.81
60465;BME280;46314;52.392;9.758;2023-03-03T00:22:54;101709.00;;;0.33;100.00
60465;BME280;46314;52.392;9.758;2023-03-03T00:25:27;101718.00;;;0.20;100.00
60465;BME280;46314;52.392;9.758;2023-03-03T00:27:54;101737.34;;;0.45;100.00
60465;BME280;46314;52.392;9.758;2023-03-03T00:30:25;101737.38;;;1.97;98.69
60465;BME280;46314;52.392;9.758;2023-03-03T00:32:52;101729.22;;;2.54;94.27
60465;BME280;46314;52.392;9.758;2023-03-03T00:35:24;101726.63;;;2.91;91.58
60465;BME280;46314;52.392;9.758;2023-03-03T00:37:53;101727.53;;;2.85;90.80
60465;BME280;46314;52.392;9.758;2023-03-03T00:40:22;101724.44;;;3.00;88.96
60465;BME280;46314;52.392;9.758;2023-03-03T00:42:51;101719.31;;;2.85;89.95
60465;BME280;46314;52.392;9.758;2023-03-03T00:45:29;101722.47;;;3.07;88.93
60465;BME280;46314;52.392;9.758;2023-03-03T00:48:15;101724.97;;;2.58;90.06
60465;BME280;46314;52.392;9.758;2023-03-03T00:50:44;101725.63;;;2.60;89.99
60465;BME280;46314;52.392;9.758;2023-03-03T00:53:12;101724.50;;;2.93;88.26
60465;BME280;46314;52.392;9.758;2023-03-03T00:55:39;101712.59;;;2.81;88.04
60465;BME280;46314;52.392;9.758;2023-03-03T00:58:06;101719.81;;;2.75;88.14
60465;BME280;46314;52.392;9.758;2023-03-03T01:00:34;101720.44;;;2.14;88.89
60465;BME280;46314;52.392;9.758;2023-03-03T01:03:03;101718.31;;;1.70;91.25
60465;BME280;46314;52.392;9.758;2023-03-03T01:05:29;101699.84;;;2.43;91.40
60465;BME280;46314;52.392;9.758;2023-03-03T01:07:56;101687.38;;;2.72;89.16
60465;BME280;46314;52.392;9.758;2023-03-03T01:10:22;101711.69;;;2.30;89.21
60465;BME280;46314;52.392;9.758;2023-03-03T01:12:49;101712.09;;;2.91;87.95
60465;BME280;46314;52.392;9.758;2023-03-03T01:15:16;101719.75;;;2.82;86.85
60465;BME280;46314;52.392;9.758;2023-03-03T01:17:44;101726.47;;;3.30;85.82
60465;BME280;46314;52.392;9.758;2023-03-03T01:20:12;101725.19;;;2.25;86.38
60465;BME280;46314;52.392;9.758;2023-03-03T01:22:39;101726.06;;;1.80;93.87
60465;BME280;46314;52.392;9.758;2023-03-03T01:25:07;101723.72;;;1.84;92.81
60465;BME280;46314;52.392;9.758;2023-03-03T01:27:34;101721.63;;;1.07;96.04
60465;BME280;46314;52.392;9.758;2023-03-03T01:30:01;101715.47;;;1.39;97.37
60465;BME280;46314;52.392;9.758;2023-03-03T01:32:27;101719.66;;;1.48;94.76
60465;BME280;46314;52.392;9.758;2023-03-03T01:34:55;101724.13;;;0.42;100.00
60465;BME280;46314;52.392;9.758;2023-03-03T01:37:22;101717.84;;;0.82;100.00
60465;BME280;46314;52.392;9.758;2023-03-03T01:39:49;101709.22;;;0.58;100.00
60465;BME280;46314;52.392;9.758;2023-03-03T01:42:16;101715.13;;;0.62;100.00
60465;BME280;46314;52.392;9.758;2023-03-03T01:44:43;101728.13;;;1.13;100.00
60465;BME280;46314;52.392;9.758;2023-03-03T01:47:10;101727.19;;;1.59;97.46
60465;BME280;46314;52.392;9.758;2023-03-03T01:49:41;101733.50;;;2.50;92.44
60465;BME280;46314;52.392;9.758;2023-03-03T01:52:18;101716.09;;;2.63;90.43
60465;BME280;46314;52.392;9.758;2023-03-03T01:54:50;101706.84;;;2.64;89.76
60465;BME280;46314;52.392;9.758;2023-03-03T01:57:22;101726.53;;;2.47;90.97
60465;BME280;46314;52.392;9.758;2023-03-03T01:59:50;101717.25;;;2.80;88.68
60465;BME280;46314;52.392;9.758;2023-03-03T02:02:18;101715.63;;;3.16;86.96
60465;BME280;46314;52.392;9.758;2023-03-03T02:04:44;101709.91;;;2.99;86.65
60465;BME280;46314;52.392;9.758;2023-03-03T02:07:13;101700.88;;;3.36;86.60
60465;BME280;46314;52.392;9.758;2023-03-03T02:09:48;101717.88;;;2.19;90.90
60465;BME280;46314;52.392;9.758;2023-03-03T02:12:19;101699.84;;;2.68;90.05
60465;BME280;46314;52.392;9.758;2023-03-03T02:14:47;101707.84;;;2.06;90.84
60465;BME280;46314;52.392;9.758;2023-03-03T02:17:14;101695.88;;;2.64;91.05
60465;BME280;46314;52.392;9.758;2023-03-03T02:19:48;101701.69;;;2.99;87.83
60465;BME280;46314;52.392;9.758;2023-03-03T02:22:22;101698.78;;;2.94;88.30
60465;BME280;46314;52.392;9.758;2023-03-03T02:24:56;101698.66;;;2.82;88.84
60465;BME280;46314;52.392;9.758;2023-03-03T02:27:27;101690.72;;;2.99;87.48
60465;BME280;46314;52.392;9.758;2023-03-03T02:29:56;101700.34;;;2.58;89.62
60465;BME280;46314;52.392;9.758;2023-03-03T02:32:23;101689.88;;;2.99;86.96
60465;BME280;46314;52.392;9.758;2023-03-03T02:34:50;101688.94;;;3.30;85.81
60465;BME280;46314;52.392;9.758;2023-03-03T02:37:18;101693.84;;;2.21;91.14
60465;BME280;46314;52.392;9.758;2023-03-03T02:39:45;101690.34;;;1.68;93.71
60465;BME280;46314;52.392;9.758;2023-03-03T02:42:13;101686.84;;;1.93;94.90
60465;BME280;46314;52.392;9.758;2023-03-03T02:44:44;101674.16;;;2.37;91.49
60465;BME280;46314;52.392;9.758;2023-03-03T02:47:10;101682.72;;;2.47;89.74
60465;BME280;46314;52.392;9.758;2023-03-03T02:49:37;101682.69;;;1.32;95.02
60465;BME280;46314;52.392;9.758;2023-03-03T02:52:05;101678.28;;;1.83;94.21
60465;BME280;46314;52.392;9.758;2023-03-03T02:54:32;101672.72;;;2.35;91.56
60465;BME280;46314;52.392;9.758;2023-03-03T02:56:59;101667.78;;;2.18;92.25
60465;BME280;46314;52.392;9.758;2023-03-03T02:59:26;101672.16;;;2.26;92.04
60465;BME280;46314;52.392;9.758;2023-03-03T03:01:54;101665.47;;;2.72;90.11
60465;BME280;46314;52.392;9.758;2023-03-03T03:04:22;101675.69;;;1.95;90.74
60465;BME280;46314;52.392;9.758;2023-03-03T03:06:49;101670.75;;;2.17;90.62
60465;BME280;46314;52.392;9.758;2023-03-03T03:09:17;101684.28;;;1.60;92.47
60465;BME280;46314;52.392;9.758;2023-03-03T03:11:44;101678.06;;;2.23;92.04
60465;BME280;46314;52.392;9.758;2023-03-03T03:14:12;101674.91;;;2.19;91.96
60465;BME280;46314;52.392;9.758;2023-03-03T03:16:39;101673.34;;;2.62;89.58
60465;BME280;46314;52.392;9.758;2023-03-03T03:19:07;101685.56;;;2.02;91.91
60465;BME280;46314;52.392;9.758;2023-03-03T03:21:34;101682.63;;;2.86;89.82
60465;BME280;46314;52.392;9.758;2023-03-03T03:24:01;101686.34;;;1.71;91.86
60465;BME280;46314;52.392;9.758;2023-03-03T03:26:27;101688.47;;;1.69;95.77
60465;BME280;46314;52.392;9.758;2023-03-03T03:28:54;101694.63;;;1.96;94.08
60465;BME280;46314;52.392;9.758;2023-03-03T03:31:20;101684.25;;;2.69;90.15
60465;BME280;46314;52.392;9.758;2023-03-03T03:33:47;101689.28;;;2.72;90.57
60465;BME280;46314;52.392;9.758;2023-03-03T03:36:16;101688.34;;;1.89;92.56
60465;BME280;46314;52.392;9.758;2023-03-03T03:38:42;101682.84;;;3.10;88.38
60465;BME280;46314;52.392;9.758;2023-03-03T03:41:10;101684.84;;;2.14;89.07
60465;BME280;46314;52.392;9.758;2023-03-03T03:43:37;101687.06;;;1.46;94.51
60465;BME280;46314;52.392;9.758;2023-03-03T03:46:04;101686.56;;;1.63;96.18
60465;BME280;46314;52.392;9.758;2023-03-03T03:48:30;101683.81;;;1.69;95.15
60465;BME280;46314;52.392;9.758;2023-03-03T03:50:57;101683.56;;;1.12;98.37
60465;BME280;46314;52.392;9.758;2023-03-03T03:53:25;101680.19;;;1.17;97.85
60465;BME280;46314;52.392;9.758;2023-03-03T03:55:51;101692.22;;;1.09;98.81
60465;BME280;46314;52.392;9.758;2023-03-03T03:58:18;101695.88;;;2.00;95.58
60465;BME280;46314;52.392;9.758;2023-03-03T04:00:45;101688.28;;;2.66;91.40
60465;BME280;46314;52.392;9.758;2023-03-03T04:03:12;101696.59;;;3.03;89.77
60465;BME280;46314;52.392;9.758;2023-03-03T04:05:39;101697.09;;;3.18;87.51
60465;BME280;46314;52.392;9.758;2023-03-03T04:08:05;101697.03;;;3.44;86.92
60465;BME280;46314;52.392;9.758;2023-03-03T04:10:33;101700.97;;;3.29;86.56
60465;BME280;46314;52.392;9.758;2023-03-03T04:13:00;101695.81;;;2.14;90.70
60465;BME280;46314;52.392;9.758;2023-03-03T04:15:26;101697.59;;;3.09;88.93
60465;BME280;46314;52.392;9.758;2023-03-03T04:17:53;101695.66;;;3.34;87.14
60465;BME280;46314;52.392;9.758;2023-03-03T04:20:19;101702.94;;;3.22;87.74
60465;BME280;46314;52.392;9.758;2023-03-03T04:22:46;101704.28;;;1.60;94.33
60465;BME280;46314;52.392;9.758;2023-03-03T04:25:14;101711.56;;;1.80;93.66
60465;BME280;46314;52.392;9.758;2023-03-03T04:27:43;101711.78;;;2.17;92.80
60465;BME280;46314;52.392;9.758;2023-03-03T04:30:11;101710.34;;;2.96;90.09
60465;BME280;46314;52.392;9.758;2023-03-03T04:32:38;101708.66;;;3.39;86.76
60465;BME280;46314;52.392;9.758;2023-03-03T04:35:05;101714.00;;;3.52;86.14
60465;BME280;46314;52.392;9.758;2023-03-03T04:37:35;101710.34;;;3.58;85.48
60465;BME280;46314;52.392;9.758;2023-03-03T04:40:01;101704.06;;;3.14;85.99
60465;BME280;46314;52.392;9.758;2023-03-03T04:42:28;101705.63;;;3.47;86.03
60465;BME280;46314;52.392;9.758;2023-03-03T04:44:55;101709.59;;;3.33;87.25
60465;BME280;46314;52.392;9.758;2023-03-03T04:47:22;101703.44;;;3.56;85.47
60465;BME280;46314;52.392;9.758;2023-03-03T04:49:48;101706.59;;;3.16;88.02
60465;BME280;46314;52.392;9.758;2023-03-03T04:52:15;101712.78;;;3.48;85.96
60465;BME280;46314;52.392;9.758;2023-03-03T04:54:41;101714.31;;;3.63;85.14
60465;BME280;46314;52.392;9.758;2023-03-03T04:57:08;101719.31;;;3.66;84.58
60465;BME280;46314;52.392;9.758;2023-03-03T04:59:34;101725.72;;;3.41;86.43
60465;BME280;46314;52.392;9.758;2023-03-03T05:02:02;101725.66;;;3.48;85.40
60465;BME280;46314;52.392;9.758;2023-03-03T05:04:29;101724.13;;;3.70;84.65
60465;BME280;46314;52.392;9.758;2023-03-03T05:06:55;101719.78;;;3.44;85.23
60465;BME280;46314;52.392;9.758;2023-03-03T05:09:21;101714.91;;;3.02;84.47
60465;BME280;46314;52.392;9.758;2023-03-03T05:11:48;101712.91;;;1.44;94.56
60465;BME280;46314;52.392;9.758;2023-03-03T05:14:14;101711.66;;;1.53;93.87
60465;BME280;46314;52.392;9.758;2023-03-03T05:16:41;101709.56;;;1.42;96.08
60465;BME280;46314;52.392;9.758;2023-03-03T05:19:08;101708.69;;;2.38;91.63
60465;BME280;46314;52.392;9.758;2023-03-03T05:21:35;101698.06;;;2.80;89.20
60465;BME280;46314;52.392;9.758;2023-03-03T05:24:03;101701.78;;;1.97;91.12
60465;BME280;46314;52.392;9.758;2023-03-03T05:26:29;101703.75;;;1.83;92.58
60465;BME280;46314;52.392;9.758;2023-03-03T05:28:56;101694.72;;;2.78;89.58
60465;BME280;46314;52.392;9.758;2023-03-03T05:31:22;101692.38;;;3.26;86.61
60465;BME280;46314;52.392;9.758;2023-03-03T05:33:49;101687.94;;;3.06;86.83
60465;BME280;46314;52.392;9.758;2023-03-03T05:36:17;101686.72;;;2.77;87.95
60465;BME280;46314;52.392;9.758;2023-03-03T05:38:43;101682.69;;;2.22;89.78
60465;BME280;46314;52.392;9.758;2023-03-03T05:41:09;101676.91;;;2.05;90.65
60465;BME280;46314;52.392;9.758;2023-03-03T05:43:36;101679.75;;;2.49;90.69
60465;BME280;46314;52.392;9.758;2023-03-03T05:46:02;101685.13;;;2.88;88.74
60465;BME280;46314;52.392;9.758;2023-03-03T05:48:29;101682.38;;;2.69;87.65
60465;BME280;46314;52.392;9.758;2023-03-03T05:50:57;101679.28;;;3.02;88.05
60465;BME280;46314;52.392;9.758;2023-03-03T05:53:25;101686.34;;;3.17;86.93
60465;BME280;46314;52.392;9.758;2023-03-03T05:55:51;101684.94;;;2.64;87.67
60465;BME280;46314;52.392;9.758;2023-03-03T05:58:17;101690.34;;;3.14;87.61
60465;BME280;46314;52.392;9.758;2023-03-03T06:00:44;101688.88;;;3.18;85.76
60465;BME280;46314;52.392;9.758;2023-03-03T06:03:11;101685.13;;;3.31;85.71
60465;BME280;46314;52.392;9.758;2023-03-03T06:05:37;101693.47;;;2.99;85.87
60465;BME280;46314;52.392;9.758;2023-03-03T06:08:04;101695.31;;;2.80;88.22
60465;BME280;46314;52.392;9.758;2023-03-03T06:10:32;101705.72;;;2.46;89.48
60465;BME280;46314;52.392;9.758;2023-03-03T06:12:58;101706.09;;;3.26;87.32
60465;BME280;46314;52.392;9.758;2023-03-03T06:15:25;101718.13;;;2.99;86.46
60465;BME280;46314;52.392;9.758;2023-03-03T06:17:51;101725.59;;;2.92;88.44
60465;BME280;46314;52.392;9.758;2023-03-03T06:20:18;101722.16;;;2.97;87.57
60465;BME280;46314;52.392;9.758;2023-03-03T06:22:44;101737.31;;;3.62;85.06
60465;BME280;46314;52.392;9.758;2023-03-03T06:25:11;101742.16;;;2.72;88.98
60465;BME280;46314;52.392;9.758;2023-03-03T06:27:38;101749.84;;;3.57;85.03
60465;BME280;46314;52.392;9.758;2023-03-03T06:30:06;101752.94;;;3.79;83.55
60465;BME280;46314;52.392;9.758;2023-03-03T06:32:33;101757.16;;;3.82;82.70
60465;BME280;46314;52.392;9.758;2023-03-03T06:34:59;101758.22;;;3.63;83.23
60465;BME280;46314;52.392;9.758;2023-03-03T06:37:25;101765.31;;;3.89;81.69
60465;BME280;46314;52.392;9.758;2023-03-03T06:39:52;101768.88;;;3.89;82.00
60465;BME280;46314;52.392;9.758;2023-03-03T06:42:18;101759.31;;;3.36;84.43
60465;BME280;46314;52.392;9.758;2023-03-03T06:44:46;101759.59;;;3.72;82.63
60465;BME280;46314;52.392;9.758;2023-03-03T06:47:13;101758.44;;;3.79;81.84
60465;BME280;46314;52.392;9.758;2023-03-03T06:49:39;101761.06;;;3.31;85.08
60465;BME280;46314;52.392;9.758;2023-03-03T06:52:11;101761.25;;;3.73;82.21
60465;BME280;46314;52.392;9.758;2023-03-03T06:54:38;101753.31;;;3.46;82.41
60465;BME280;46314;52.392;9.758;2023-03-03T06:57:14;101758.22;;;3.63;82.68
60465;BME280;46314;52.392;9.758;2023-03-03T06:59:41;101757.28;;;3.69;81.23
60465;BME280;46314;52.392;9.758;2023-03-03T07:02:13;101752.56;;;3.76;82.34
60465;BME280;46314;52.392;9.758;2023-03-03T07:04:41;101758.91;;;3.76;80.87
60465;BME280;46314;52.392;9.758;2023-03-03T07:07:14;101761.31;;;3.85;81.16
60465;BME280;46314;52.392;9.758;2023-03-03T07:09:43;101760.63;;;4.08;79.98
60465;BME280;46314;52.392;9.758;2023-03-03T07:12:12;101761.00;;;4.11;79.87
60465;BME280;46314;52.392;9.758;2023-03-03T07:14:42;101761.75;;;4.18;79.98
60465;BME280;46314;52.392;9.758;2023-03-03T07:17:15;101764.59;;;4.12;80.44
60465;BME280;46314;52.392;9.758;2023-03-03T07:19:42;101768.66;;;3.91;81.36
60465;BME280;46314;52.392;9.758;2023-03-03T07:22:14;101770.19;;;3.68;82.38
60465;BME280;46314;52.392;9.758;2023-03-03T07:24:43;101768.72;;;3.47;82.80
60465;BME280;46314;52.392;9.758;2023-03-03T07:27:12;101776.66;;;3.92;81.64
60465;BME280;46314;52.392;9.758;2023-03-03T07:29:40;101776.47;;;3.07;83.92
60465;BME280;46314;52.392;9.758;2023-03-03T07:32:20;101787.63;;;3.74;82.21
60465;BME280;46314;52.392;9.758;2023-03-03T07:34:48;101785.19;;;3.22;84.14
60465;BME280;46314;52.392;9.758;2023-03-03T07:37:23;101779.00;;;3.08;86.34
60465;BME280;46314;52.392;9.758;2023-03-03T07:39:52;101778.63;;;3.85;82.50
60465;BME280;46314;52.392;9.758;2023-03-03T07:42:21;101784.91;;;3.92;80.70
60465;BME280;46314;52.392;9.758;2023-03-03T07:44:49;101777.00;;;4.14;80.09
60465;BME280;46314;52.392;9.758;2023-03-03T07:47:23;101787.63;;;4.11;79.53
60465;BME280;46314;52.392;9.758;2023-03-03T07:49:51;101793.66;;;2.57;83.62
60465;BME280;46314;52.392;9.758;2023-03-03T07:52:24;101794.94;;;3.62;83.50
60465;BME280;46314;52.392;9.758;2023-03-03T07:54:52;101786.88;;;4.04;80.81
60465;BME280;46314;52.392;9.758;2023-03-03T07:57:22;101788.84;;;3.96;80.59
60465;BME280;46314;52.392;9.758;2023-03-03T07:59:51;101795.25;;;4.09;80.63
60465;BME280;46314;52.392;9.758;2023-03-03T08:02:40;101800.56;;;3.85;80.58
60465;BME280;46314;52.392;9.758;2023-03-03T08:05:29;101808.44;;;4.00;80.39
60465;BME280;46314;52.392;9.758;2023-03-03T08:08:09;101800.06;;;3.76;80.57
60465;BME280;46314;52.392;9.758;2023-03-03T08:10:40;101798.81;;;3.72;82.28
60465;BME280;46314;52.392;9.758;2023-03-03T08:13:16;101797.53;;;3.93;80.79
60465;BME280;46314;52.392;9.758;2023-03-03T08:15:44;101802.50;;;4.03;80.94
60465;BME280;46314;52.392;9.758;2023-03-03T08:18:20;101804.03;;;4.48;79.23
60465;BME280;46314;52.392;9.758;2023-03-03T08:20:48;101809.06;;;4.21;80.99
60465;BME280;46314;52.392;9.758;2023-03-03T08:23:16;101800.75;;;3.03;85.53
60465;BME280;46314;52.392;9.758;2023-03-03T08:25:44;101810.78;;;3.78;83.34
60465;BME280;46314;52.392;9.758;2023-03-03T08:28:11;101808.44;;;4.00;80.85
60465;BME280;46314;52.392;9.758;2023-03-03T08:30:37;101810.41;;;3.74;79.46
60465;BME280;46314;52.392;9.758;2023-03-03T08:33:04;101812.59;;;3.66;82.08
60465;BME280;46314;52.392;9.758;2023-03-03T08:35:31;101812.47;;;4.16;79.67
60465;BME280;46314;52.392;9.758;2023-03-03T08:37:58;101818.66;;;4.30;79.06
60465;BME280;46314;52.392;9.758;2023-03-03T08:40:25;101828.00;;;4.41;77.77
60465;BME280;46314;52.392;9.758;2023-03-03T08:42:51;101821.03;;;4.08;78.38
60465;BME280;46314;52.392;9.758;2023-03-03T08:45:19;101822.66;;;4.46;78.79
60465;BME280;46314;52.392;9.758;2023-03-03T08:47:45;101825.69;;;4.56;78.30
60465;BME280;46314;52.392;9.758;2023-03-03T08:50:12;101819.63;;;4.35;78.68
60465;BME280;46314;52.392;9.758;2023-03-03T08:52:40;101822.97;;;4.56;77.95
60465;BME280;46314;52.392;9.758;2023-03-03T08:55:07;101819.28;;;5.04;75.43
60465;BME280;46314;52.392;9.758;2023-03-03T08:57:34;101817.44;;;4.07;80.29
60465;BME280;46314;52.392;9.758;2023-03-03T09:00:00;101812.59;;;5.00;76.31
60465;BME280;46314;52.392;9.758;2023-03-03T09:02:27;101818.56;;;5.09;75.14
60465;BME280;46314;52.392;9.758;2023-03-03T09:04:53;101823.94;;;5.04;75.15
60465;BME280;46314;52.392;9.758;2023-03-03T09:07:20;101813.34;;;5.19;75.09
60465;BME280;46314;52.392;9.758;2023-03-03T09:09:48;101818.06;;;4.58;77.71
60465;BME280;46314;52.392;9.758;2023-03-03T09:12:16;101817.13;;;3.78;81.08
60465;BME280;46314;52.392;9.758;2023-03-03T09:14:43;101822.00;;;4.62;77.86
60465;BME280;46314;52.392;9.758;2023-03-03T09:17:25;101815.97;;;4.42;79.88
60465;BME280;46314;52.392;9.758;2023-03-03T09:19:55;101815.78;;;4.97;77.74
60465;BME280;46314;52.392;9.758;2023-03-03T09:22:24;101814.38;;;5.06;77.37
60465;BME280;46314;52.392;9.758;2023-03-03T09:24:54;101814.69;;;4.26;79.87
60465;BME280;46314;52.392;9.758;2023-03-03T09:27:26;101817.91;;;4.83;77.55
60465;BME280;46314;52.392;9.758;2023-03-03T09:29:54;101809.91;;;5.47;75.30
60465;BME280;46314;52.392;9.758;2023-03-03T09:32:29;101809.28;;;5.69;73.88
60465;BME280;46314;52.392;9.758;2023-03-03T09:34:56;101812.28;;;5.79;73.33
60465;BME280;46314;52.392;9.758;2023-03-03T09:37:26;101815.16;;;5.49;72.55
60465;BME280;46314;52.392;9.758;2023-03-03T09:39:55;101813.50;;;4.94;77.38
60465;BME280;46314;52.392;9.758;2023-03-03T09:42:30;101816.66;;;5.09;74.75
60465;BME280;46314;52.392;9.758;2023-03-03T09:45:29;101819.56;;;5.62;73.52
60465;BME280;46314;52.392;9.758;2023-03-03T09:48:25;101819.69;;;5.31;74.24
60465;BME280;46314;52.392;9.758;2023-03-03T09:51:01;101815.81;;;5.09;76.36
60465;BME280;46314;52.392;9.758;2023-03-03T09:53:41;101821.34;;;4.48;78.75
60465;BME280;46314;52.392;9.758;2023-03-03T09:56:16;101829.25;;;4.26;79.67
60465;BME280;46314;52.392;9.758;2023-03-03T09:58:55;101821.63;;;4.28;80.20
60465;BME280;46314;52.392;9.758;2023-03-03T10:01:35;101829.69;;;5.02;76.79
60465;BME280;46314;52.392;9.758;2023-03-03T10:04:28;101829.78;;;4.65;77.89
60465;BME280;46314;52.392;9.758;2023-03-03T10:07:12;101834.91;;;4.13;78.92
60465;BME280;46314;52.392;9.758;2023-03-03T10:09:50;101827.94;;;4.78;78.75
60465;BME280;46314;52.392;9.758;2023-03-03T10:12:25;101825.63;;;5.05;75.94
60465;BME280;46314;52.392;9.758;2023-03-03T10:15:13;101820.19;;;5.40;75.13
60465;BME280;46314;52.392;9.758;2023-03-03T10:17:48;101826.50;;;5.41;74.37
60465;BME280;46314;52.392;9.758;2023-03-03T10:20:25;101827.59;;;5.52;74.23
60465;BME280;46314;52.392;9.758;2023-03-03T10:23:17;101836.44;;;5.54;73.93
60465;BME280;46314;52.392;9.758;2023-03-03T10:25:51;101832.75;;;5.60;73.45
60465;BME280;46314;52.392;9.758;2023-03-03T10:28:47;101845.06;;;5.81;72.63
60465;BME280;46314;52.392;9.758;2023-03-03T10:31:24;101839.44;;;5.64;73.34
60465;BME280;46314;52.392;9.758;2023-03-03T10:33:58;101843.50;;;5.85;73.34
60465;BME280;46314;52.392;9.758;2023-03-03T10:36:33;101838.09;;;5.31;73.31
60465;BME280;46314;52.392;9.758;2023-03-03T10:39:12;101833.56;;;5.37;73.56
60465;BME280;46314;52.392;9.758;2023-03-03T10:41:57;101836.94;;;5.86;71.93
60465;BME280;46314;52.392;9.758;2023-03-03T10:44:49;101834.91;;;5.58;73.93
60465;BME280;46314;52.392;9.758;2023-03-03T10:47:49;101842.31;;;6.16;71.70
60465;BME280;46314;52.392;9.758;2023-03-03T10:50:20;101845.31;;;5.91;71.93
60465;BME280;46314;52.392;9.758;2023-03-03T10:52:54;101841.56;;;5.85;71.10
60465;BME280;46314;52.392;9.758;2023-03-03T10:55:37;101842.91;;;5.71;71.93
60465;BME280;46314;52.392;9.758;2023-03-03T10:58:28;101847.09;;;5.38;73.65
60465;BME280;46314;52.392;9.758;2023-03-03T11:01:07;101852.47;;;5.45;74.03
60465;BME280;46314;52.392;9.758;2023-03-03T11:04:04;101838.22;;;5.83;71.12
60465;BME280;46314;52.392;9.758;2023-03-03T11:06:39;101844.94;;;5.87;72.18
60465;BME280;46314;52.392;9.758;2023-03-03T11:09:14;101845.31;;;5.91;73.06
60465;BME280;46314;52.392;9.758;2023-03-03T11:11:42;101837.41;;;5.71;73.10
60465;BME280;46314;52.392;9.758;2023-03-03T11:14:17;101828.31;;;5.71;73.82
60465;BME280;46314;52.392;9.758;2023-03-03T11:16:56;101834.16;;;5.62;72.40
60465;BME280;46314;52.392;9.758;2023-03-03T11:19:35;101832.69;;;5.12;74.45
60465;BME280;46314;52.392;9.758;2023-03-03T11:22:13;101834.41;;;5.84;72.26
60465;BME280;46314;52.392;9.758;2023-03-03T11:24:53;101833.75;;;6.30;70.18
60465;BME280;46314;52.392;9.758;2023-03-03T11:27:36;101831.91;;;5.95;70.95
60465;BME280;46314;52.392;9.758;2023-03-03T11:30:27;101830.19;;;6.17;69.62
60465;BME280;46314;52.392;9.758;2023-03-03T11:33:01;101826.16;;;6.77;68.10
60465;BME280;46314;52.392;9.758;2023-03-03T11:35:35;101818.44;;;6.91;67.13
60465;BME280;46314;52.392;9.758;2023-03-03T11:38:12;101814.88;;;6.50;68.26
60465;BME280;46314;52.392;9.758;2023-03-03T11:40:46;101820.03;;;6.06;69.25
60465;BME280;46314;52.392;9.758;2023-03-03T11:43:18;101813.16;;;6.32;67.72
60465;BME280;46314;52.392;9.758;2023-03-03T11:46:04;101808.81;;;6.94;65.31
60465;BME280;46314;52.392;9.758;2023-03-03T11:48:38;101811.66;;;7.33;63.29
60465;BME280;46314;52.392;9.758;2023-03-03T11:51:12;101811.13;;;6.28;65.30
60465;BME280;46314;52.392;9.758;2023-03-03T11:53:49;101799.91;;;6.75;63.84
60465;BME280;46314;52.392;9.758;2023-03-03T11:56:22;101798.78;;;7.05;62.90
60465;BME280;46314;52.392;9.758;2023-03-03T11:58:57;101799.06;;;6.05;66.10
60465;BME280;46314;52.392;9.758;2023-03-03T12:01:31;101793.44;;;7.15;61.84
60465;BME280;46314;52.392;9.758;2023-03-03T12:04:02;101787.66;;;6.99;61.66
60465;BME280;46314;52.392;9.758;2023-03-03T12:06:35;101787.72;;;6.88;62.48
60465;BME280;46314;52.392;9.758;2023-03-03T12:09:20;101784.81;;;6.49;62.90
60465;BME280;46314;52.392;9.758;2023-03-03T12:11:54;101780.41;;;6.64;63.11
60465;BME280;46314;52.392;9.758;2023-03-03T12:14:34;101784.56;;;6.21;64.66
60465;BME280;46314;52.392;9.758;2023-03-03T12:17:10;101778.84;;;6.40;63.75
60465;BME280;46314;52.392;9.758;2023-03-03T12:19:48;101775.19;;;6.80;62.22
60465;BME280;46314;52.392;9.758;2023-03-03T12:22:26;101770.75;;;7.30;60.89
60465;BME280;46314;52.392;9.758;2023-03-03T12:25:20;101766.47;;;7.56;59.71
60465;BME280;46314;52.392;9.758;2023-03-03T12:27:52;101765.38;;;7.57;59.45
60465;BME280;46314;52.392;9.758;2023-03-03T12:30:34;101749.72;;;7.24;60.49
60465;BME280;46314;52.392;9.758;2023-03-03T12:33:16;101759.56;;;6.69;61.88
60465;BME280;46314;52.392;9.758;2023-03-03T12:35:52;101763.84;;;7.27;60.50
60465;BME280;46314;52.392;9.758;2023-03-03T12:38:27;101762.66;;;7.06;60.57
60465;BME280;46314;52.392;9.758;2023-03-03T12:41:01;101760.00;;;7.11;60.82
60465;BME280;46314;52.392;9.758;2023-03-03T12:43:41;101762.09;;;6.30;62.54
60465;BME280;46314;52.392;9.758;2023-03-03T12:46:18;101758.78;;;5.63;66.45
60465;BME280;46314;52.392;9.758;2023-03-03T12:48:46;101753.34;;;5.92;66.36
60465;BME280;46314;52.392;9.758;2023-03-03T12:51:24;101757.91;;;6.39;64.26
60465;BME280;46314;52.392;9.758;2023-03-03T12:54:10;101741.59;;;7.00;61.63
60465;BME280;46314;52.392;9.758;2023-03-03T12:56:42;101748.38;;;6.47;64.36
60465;BME280;46314;52.392;9.758;2023-03-03T12:59:15;101745.69;;;6.35;64.61
60465;BME280;46314;52.392;9.758;2023-03-03T13:01:59;101740.44;;;7.13;61.79
60465;BME280;46314;52.392;9.758;2023-03-03T13:04:33;101737.34;;;6.92;61.99
60465;BME280;46314;52.392;9.758;2023-03-03T13:07:09;101729.56;;;7.06;61.55
60465;BME280;46314;52.392;9.758;2023-03-03T13:09:51;101727.63;;;6.73;62.97
60465;BME280;46314;52.392;9.758;2023-03-03T13:12:30;101739.19;;;7.04;61.99
60465;BME280;46314;52.392;9.758;2023-03-03T13:15:05;101724.28;;;6.88;61.92
60465;BME280;46314;52.392;9.758;2023-03-03T13:17:37;101726.66;;;7.13;61.62
60465;BME280;46314;52.392;9.758;2023-03-03T13:20:18;101722.78;;;7.14;61.42